Time;durP1;ratioP1;P1;durP2;ratioP2;P2;SDS_P1;SDS_P2;PMS_P1;PMS_P2;Temp;Humidity;BMP_temperature;BMP_pressure;BME280_temperature;BME280_humidity;BME280_pressure;Samples;Min_cycle;Max_cycle;Signal;HPM_P1;HPM_P2
2022/12/20 00:01:21;;;;;;;4.55;4.35;;;;;;;8.67;100.00;101259.94;6036425;23;20023;-72
2022/12/20 00:03:50;;;;;;;4.57;4.38;;;;;;;8.57;100.00;101236.72;6012580;23;20445;-73
2022/12/20 00:06:16;;;;;;;4.47;4.28;;;;;;;8.93;100.00;101287.81;6031927;23;20023;-71
2022/12/20 00:08:44;;;;;;;4.10;3.90;;;;;;;8.71;100.00;101241.44;6014716;23;20481;-73
2022/12/20 00:11:11;;;;;;;4.65;4.43;;;;;;;8.64;100.00;101219.06;6038750;23;20097;-71
2022/12/20 00:13:38;;;;;;;4.50;4.30;;;;;;;8.84;100.00;101246.25;6039796;23;20517;-74
2022/12/20 00:16:15;;;;;;;4.50;4.30;;;;;;;8.98;100.00;101264.94;6040638;23;20507;-71
2022/12/20 00:18:42;;;;;;;4.50;4.30;;;;;;;8.72;100.00;101209.16;6044225;23;20088;-73
2022/12/20 00:21:12;;;;;;;4.70;4.35;;;;;;;9.09;100.00;101264.53;6038671;23;20025;-74
2022/12/20 00:23:40;;;;;;;4.68;4.43;;;;;;;9.10;100.00;101261.88;6036086;23;20026;-72
2022/12/20 00:26:09;;;;;;;4.30;4.10;;;;;;;9.01;100.00;101259.59;6041949;23;20022;-73
2022/12/20 00:28:37;;;;;;;4.70;4.40;;;;;;;9.10;100.00;101269.72;6048771;23;20169;-72
2022/12/20 00:31:05;;;;;;;4.82;4.60;;;;;;;8.90;100.00;101238.16;6016394;23;20014;-73
2022/12/20 00:33:33;;;;;;;4.50;4.30;;;;;;;8.99;100.00;101264.88;6039509;23;20022;-73
2022/12/20 00:35:59;;;;;;;4.35;4.15;;;;;;;8.67;100.00;101221.53;6036088;23;20081;-74
2022/12/20 00:38:26;;;;;;;4.60;4.40;;;;;;;8.96;100.00;101279.81;6038956;23;20015;-71
2022/12/20 00:41:11;;;;;;;4.20;4.00;;;;;;;8.79;100.00;101268.19;6009727;23;20038;-73
2022/12/20 00:43:38;;;;;;;4.35;4.15;;;;;;;8.74;100.00;101274.50;6037635;23;20110;-74
2022/12/20 00:46:06;;;;;;;4.80;4.47;;;;;;;8.83;100.00;101291.66;6034649;23;20015;-72
2022/12/20 00:48:34;;;;;;;4.63;4.38;;;;;;;8.83;100.00;101289.03;6043456;23;20027;-71
2022/12/20 00:51:06;;;;;;;4.32;4.13;;;;;;;8.78;100.00;101292.69;6043681;23;20026;-71
2022/12/20 00:53:33;;;;;;;4.57;4.38;;;;;;;8.78;100.00;101300.53;6037351;23;20015;-71
2022/12/20 00:56:00;;;;;;;4.35;4.15;;;;;;;8.79;100.00;101304.84;6038439;23;20046;-74
2022/12/20 00:58:27;;;;;;;5.65;4.57;;;;;;;8.79;100.00;101297.00;6015427;23;20030;-70
2022/12/20 01:00:54;;;;;;;4.45;4.25;;;;;;;8.78;100.00;101291.84;6037534;23;20399;-73
2022/12/20 01:03:23;;;;;;;4.50;4.30;;;;;;;8.26;100.00;101197.69;6035429;23;20019;-71
2022/12/20 01:05:54;;;;;;;4.38;4.18;;;;;;;8.79;100.00;101288.28;6046213;23;20030;-71
2022/12/20 01:08:21;;;;;;;4.30;4.10;;;;;;;8.73;100.00;101284.13;6035439;23;20015;-73
2022/12/20 01:11:00;;;;;;;4.50;4.30;;;;;;;8.67;100.00;101273.88;6039277;23;20026;-73
2022/12/20 01:13:27;;;;;;;4.38;4.18;;;;;;;8.81;100.00;101247.22;6037328;23;20027;-71
2022/12/20 01:15:54;;;;;;;4.60;4.20;;;;;;;9.04;100.00;101279.56;6044989;23;20598;-70
2022/12/20 01:18:21;;;;;;;4.15;3.95;;;;;;;9.04;100.00;101288.28;6042098;23;20026;-73
2022/12/20 01:20:47;;;;;;;4.30;3.92;;;;;;;9.01;100.00;101271.81;6046885;23;20038;-71
2022/12/20 01:23:14;;;;;;;6.72;4.53;;;;;;;8.96;100.00;101265.00;6033979;23;20106;-73
2022/12/20 01:25:40;;;;;;;4.47;4.28;;;;;;;8.74;100.00;101223.03;6033247;23;20042;-73
2022/12/20 01:28:06;;;;;;;4.45;4.20;;;;;;;9.04;100.00;101264.72;6045798;23;20616;-73
2022/12/20 01:30:33;;;;;;;4.93;4.68;;;;;;;8.84;100.00;101233.16;6035247;23;20011;-73
2022/12/20 01:32:59;;;;;;;4.80;4.50;;;;;;;8.91;100.00;101261.69;6037493;23;20529;-73
2022/12/20 01:35:26;;;;;;;4.93;4.68;;;;;;;8.62;100.00;101233.06;6040092;23;20058;-71
2022/12/20 01:37:52;;;;;;;4.10;3.90;;;;;;;8.68;100.00;101232.84;6039499;23;20030;-71
2022/12/20 01:40:18;;;;;;;4.55;4.35;;;;;;;8.78;100.00;101245.56;6044469;23;20050;-73
2022/12/20 01:42:45;;;;;;;4.13;3.92;;;;;;;8.82;100.00;101256.78;6035931;23;20029;-69
2022/12/20 01:45:21;;;;;;;4.20;4.00;;;;;;;8.48;100.00;101196.94;5998580;23;20579;-68
2022/12/20 01:47:48;;;;;;;4.55;4.35;;;;;;;8.93;100.00;101262.47;6036825;23;20025;-70
2022/12/20 01:50:15;;;;;;;4.30;4.10;;;;;;;9.01;100.00;101264.81;6049582;23;20048;-68
2022/12/20 01:52:45;;;;;;;4.43;4.22;;;;;;;9.02;100.00;101258.69;6049648;23;20030;-68
2022/12/20 01:55:17;;;;;;;6.57;4.55;;;;;;;9.00;100.00;101247.41;6039378;23;20206;-69
2022/12/20 01:57:50;;;;;;;4.97;4.65;;;;;;;9.06;100.00;101251.53;6044040;23;20033;-69
2022/12/20 02:00:17;;;;;;;4.82;4.53;;;;;;;8.85;100.00;101214.78;6036312;23;20018;-69
2022/12/20 02:02:46;;;;;;;4.53;4.30;;;;;;;9.06;100.00;101248.94;6040309;23;20023;-68
2022/12/20 02:05:13;;;;;;;4.70;4.50;;;;;;;8.84;100.00;101213.09;6005680;23;20071;-69
2022/12/20 02:07:42;;;;;;;4.30;4.10;;;;;;;8.99;100.00;101232.59;6037162;23;20050;-69
2022/12/20 02:10:10;;;;;;;7.40;4.82;;;;;;;8.71;100.00;101172.56;6034813;23;20050;-69
2022/12/20 02:12:42;;;;;;;4.90;4.60;;;;;;;8.79;100.00;101187.06;6032439;23;20358;-69
2022/12/20 02:15:38;;;;;;;4.32;4.13;;;;;;;9.12;100.00;101249.56;6034834;23;20667;-69
2022/12/20 02:18:32;;;;;;;4.53;4.32;;;;;;;8.11;100.00;101078.78;6038834;23;20026;-68
2022/12/20 02:21:04;;;;;;;4.63;4.43;;;;;;;9.07;100.00;101234.94;6042894;23;20023;-69
2022/12/20 02:23:45;;;;;;;4.80;4.57;;;;;;;9.12;100.00;101246.09;6046897;23;20045;-69
2022/12/20 02:26:17;;;;;;;4.72;4.30;;;;;;;9.16;100.00;101238.06;6033356;23;20636;-69
2022/12/20 02:29:02;;;;;;;5.00;4.70;;;;;;;9.10;100.00;101222.59;6043586;23;20030;-69
2022/12/20 02:31:38;;;;;;;4.40;4.20;;;;;;;9.15;100.00;101232.88;6039985;23;20013;-69
2022/12/20 02:34:07;;;;;;;5.18;4.75;;;;;;;8.03;100.00;101040.78;6058393;23;20030;-67
2022/12/20 02:36:34;;;;;;;4.82;4.55;;;;;;;9.14;100.00;101218.94;6041882;23;20101;-68
2022/12/20 02:39:00;;;;;;;5.00;4.70;;;;;;;9.14;100.00;101221.56;6037174;23;20046;-69
2022/12/20 02:41:43;;;;;;;5.75;5.28;;;;;;;9.16;100.00;101222.38;6041811;23;20339;-69
2022/12/20 02:47:05;;;;;;;5.53;5.10;;;;;;;8.77;100.00;101172.34;6044367;23;20044;-69
2022/12/20 02:49:37;;;;;;;6.53;5.03;;;;;;;9.19;100.00;101242.34;6012774;23;20106;-69
2022/12/20 02:52:05;;;;;;;4.60;4.35;;;;;;;8.89;100.00;101203.28;6032235;23;20023;-69
2022/12/20 02:54:35;;;;;;;5.47;5.18;;;;;;;8.62;100.00;101159.81;6041806;23;20015;-69
2022/12/20 02:57:44;;;;;;;5.25;4.95;;;;;;;9.09;100.00;101247.06;6040735;23;20604;-69
2022/12/20 03:00:17;;;;;;;6.82;4.40;;;;;;;9.07;100.00;101243.66;6036106;23;20066;-69
2022/12/20 03:05:33;;;;;;;11.85;5.05;;;;;;;9.09;100.00;101239.19;6033188;23;20477;-68
2022/12/20 03:08:00;;;;;;;5.35;4.90;;;;;;;8.98;100.00;101230.91;6038890;23;20025;-69
2022/12/20 03:10:27;;;;;;;5.40;4.97;;;;;;;9.02;100.00;101248.22;6011663;23;20026;-68
2022/12/20 03:12:53;;;;;;;5.00;4.60;;;;;;;8.77;100.00;101203.75;6038136;23;20025;-68
2022/12/20 03:15:20;;;;;;;4.88;4.60;;;;;;;8.99;100.00;101243.06;6033704;23;20018;-69
2022/12/20 03:17:46;;;;;;;4.57;4.38;;;;;;;8.98;100.00;101246.63;6013758;23;20038;-67
2022/12/20 03:20:12;;;;;;;4.65;4.45;;;;;;;8.65;100.00;101202.44;6042436;23;20029;-72
2022/12/20 03:22:39;;;;;;;4.93;4.63;;;;;;;8.73;100.00;101215.25;6033547;23;20031;-71
2022/12/20 03:25:06;;;;;;;5.15;4.85;;;;;;;8.55;100.00;101183.59;6035946;23;20089;-73
2022/12/20 03:27:32;;;;;;;4.63;4.43;;;;;;;8.95;100.00;101250.19;6010497;23;20409;-72
2022/12/20 03:29:59;;;;;;;4.68;4.47;;;;;;;7.67;100.00;101035.94;6037510;23;20445;-71
2022/12/20 03:32:25;;;;;;;5.25;4.82;;;;;;;8.90;100.00;101261.72;6041970;23;20038;-72
2022/12/20 03:34:52;;;;;;;5.18;4.88;;;;;;;8.55;100.00;101201.06;6044152;23;20293;-74
2022/12/20 03:37:18;;;;;;;5.20;4.90;;;;;;;8.71;100.00;101214.44;6040366;23;20026;-71
2022/12/20 03:39:44;;;;;;;4.68;4.43;;;;;;;8.78;100.00;101236.88;6031370;23;20034;-74
2022/12/20 03:42:11;;;;;;;4.75;4.55;;;;;;;8.80;100.00;101253.38;6044820;23;20011;-72
2022/12/20 03:44:37;;;;;;;5.05;4.75;;;;;;;8.71;100.00;101259.78;6033152;23;20541;-71
2022/12/20 03:47:04;;;;;;;12.75;5.68;;;;;;;8.77;100.00;101274.41;6047842;23;20433;-73
2022/12/20 03:49:30;;;;;;;5.78;5.38;;;;;;;8.77;100.00;101262.16;6011542;23;20023;-72
2022/12/20 03:51:57;;;;;;;5.18;4.80;;;;;;;8.51;100.00;101226.47;6042873;23;20086;-73
2022/12/20 03:54:23;;;;;;;4.90;4.60;;;;;;;8.69;100.00;101264.22;6043968;23;20018;-72
2022/12/20 03:56:50;;;;;;;5.38;4.97;;;;;;;8.60;100.00;101246.22;6041905;23;20023;-73
2022/12/20 03:59:16;;;;;;;4.57;4.32;;;;;;;8.65;100.00;101260.00;6045997;23;20136;-74
2022/12/20 04:01:42;;;;;;;5.10;4.80;;;;;;;8.47;100.00;101239.72;6041965;23;20031;-71
2022/12/20 04:04:12;;;;;;;5.10;4.72;;;;;;;8.56;100.00;101261.19;6038698;23;20038;-74
2022/12/20 04:06:38;;;;;;;5.13;4.72;;;;;;;8.52;100.00;101259.56;6041876;23;20029;-71
2022/12/20 04:09:05;;;;;;;4.65;4.40;;;;;;;7.64;100.00;101133.56;6040417;23;20612;-73
2022/12/20 04:11:31;;;;;;;4.70;4.50;;;;;;;8.33;100.00;101227.91;6040629;23;20015;-72
2022/12/20 04:13:58;;;;;;;5.72;5.35;;;;;;;8.23;100.00;101210.84;6037224;23;20035;-73
2022/12/20 04:16:27;;;;;;;4.90;4.57;;;;;;;8.31;100.00;101234.13;6045353;23;20119;-73
2022/12/20 04:18:53;;;;;;;4.65;4.35;;;;;;;8.38;100.00;101243.47;6047742;23;20198;-73
2022/12/20 04:21:26;;;;;;;5.25;4.95;;;;;;;8.40;100.00;101244.28;6046586;23;20045;-71
2022/12/20 04:23:52;;;;;;;5.20;4.80;;;;;;;7.95;100.00;101182.16;6016064;23;20038;-71
2022/12/20 04:26:19;;;;;;;4.80;4.47;;;;;;;8.32;100.00;101222.78;6041033;23;20064;-71
2022/12/20 04:28:46;;;;;;;4.60;4.40;;;;;;;8.29;100.00;101222.84;6047001;23;20093;-72
2022/12/20 04:31:12;;;;;;;4.45;4.25;;;;;;;7.98;100.00;101167.25;6037729;23;20019;-71
2022/12/20 04:33:47;;;;;;;4.88;4.57;;;;;;;8.10;100.00;101179.03;6041174;23;20042;-71
2022/12/20 04:36:14;;;;;;;5.55;5.13;;;;;;;8.29;100.00;101215.84;6044536;23;20076;-72
2022/12/20 04:38:40;;;;;;;5.43;5.03;;;;;;;8.28;100.00;101213.28;6045442;23;20030;-71
2022/12/20 04:41:07;;;;;;;5.60;5.10;;;;;;;8.08;100.00;101175.63;6051057;23;20041;-72
2022/12/20 04:43:33;;;;;;;5.15;4.85;;;;;;;8.15;100.00;101189.34;6044574;23;20018;-71
2022/12/20 04:46:00;;;;;;;4.97;4.68;;;;;;;8.23;100.00;101195.16;6046239;23;20034;-72
2022/12/20 04:48:27;;;;;;;5.22;4.90;;;;;;;8.24;100.00;101188.16;6029984;23;20093;-71
2022/12/20 04:51:13;;;;;;;4.70;4.43;;;;;;;8.23;100.00;101176.84;6038703;23;20022;-70
2022/12/20 04:53:46;;;;;;;5.50;4.90;;;;;;;8.03;100.00;101148.78;6042061;23;20458;-72
2022/12/20 04:56:16;;;;;;;5.40;4.90;;;;;;;7.97;100.00;101151.59;6038767;23;20030;-71
2022/12/20 04:58:44;;;;;;;5.28;4.95;;;;;;;8.10;100.00;101167.75;6034884;23;20034;-74
2022/12/20 05:01:12;;;;;;;4.80;4.50;;;;;;;8.09;100.00;101166.03;6038404;23;20018;-73
2022/12/20 05:03:39;;;;;;;4.72;4.43;;;;;;;7.64;100.00;101101.34;6042851;23;20257;-72
2022/12/20 05:06:06;;;;;;;4.88;4.60;;;;;;;8.01;100.00;101149.75;6044553;23;20041;-73
2022/12/20 05:08:34;;;;;;;5.72;5.32;;;;;;;7.88;100.00;101128.41;6041579;23;20011;-71
2022/12/20 05:11:00;;;;;;;5.25;4.95;;;;;;;7.98;100.00;101132.41;6043535;23;20094;-71
2022/12/20 05:13:29;;;;;;;4.80;4.50;;;;;;;8.02;100.00;101136.63;6008118;23;20107;-72
2022/12/20 05:15:56;;;;;;;5.18;4.78;;;;;;;8.02;100.00;101135.75;6036999;23;20037;-71
2022/12/20 05:18:25;;;;;;;5.05;4.75;;;;;;;8.01;100.00;101132.28;6043882;23;20059;-72
2022/12/20 05:26:35;;;;;;;5.22;4.93;;;;;;;7.94;100.00;101107.31;6038758;23;20023;-71
2022/12/20 05:29:01;;;;;;;5.05;4.78;;;;;;;7.86;100.00;101078.81;6013406;23;20076;-71
2022/12/20 05:31:28;;;;;;;5.32;4.72;;;;;;;7.84;100.00;101062.34;6033581;23;20019;-70
2022/12/20 05:33:57;;;;;;;5.57;5.20;;;;;;;8.05;100.00;101102.53;6050518;23;20234;-70
2022/12/20 05:36:23;;;;;;;5.63;5.25;;;;;;;6.83;100.00;100898.69;6044034;23;20022;-71
2022/12/20 05:38:50;;;;;;;6.07;5.47;;;;;;;7.73;100.00;101040.94;6035348;23;20046;-72
2022/12/20 05:41:16;;;;;;;4.85;4.50;;;;;;;7.88;100.00;101063.94;6046942;23;20021;-71
2022/12/20 05:43:43;;;;;;;5.50;5.18;;;;;;;7.99;100.00;101080.06;6044792;23;20038;-70
2022/12/20 05:46:09;;;;;;;5.18;4.88;;;;;;;8.19;100.00;101086.34;6043791;23;20027;-73
2022/12/20 05:48:36;;;;;;;5.05;4.75;;;;;;;8.19;100.00;101095.03;6035650;23;20027;-71
2022/12/20 05:51:03;;;;;;;4.93;4.63;;;;;;;8.24;100.00;101086.19;6045625;23;20106;-71
2022/12/20 05:53:29;;;;;;;5.88;5.47;;;;;;;7.82;100.00;101011.00;6013717;23;20021;-71
2022/12/20 05:55:56;;;;;;;6.60;5.45;;;;;;;7.86;100.00;101017.84;6012458;23;20037;-71
2022/12/20 05:58:22;;;;;;;5.53;5.22;;;;;;;8.23;100.00;101066.19;6042102;23;20093;-71
2022/12/20 06:00:49;;;;;;;5.00;4.70;;;;;;;8.26;100.00;101058.22;6039874;23;20033;-72
2022/12/20 06:03:16;;;;;;;4.82;4.55;;;;;;;8.25;100.00;101066.97;6036349;23;20036;-72
2022/12/20 06:05:43;;;;;;;5.95;5.43;;;;;;;8.25;100.00;101070.44;6041127;23;20101;-72
2022/12/20 06:08:10;;;;;;;4.63;4.40;;;;;;;7.35;100.00;100936.91;6039535;23;20033;-70
2022/12/20 06:10:39;;;;;;;4.88;4.60;;;;;;;8.27;100.00;101059.94;6041758;23;20468;-71
2022/12/20 06:13:06;;;;;;;5.13;4.82;;;;;;;8.01;100.00;101021.69;6032883;23;20029;-71
2022/12/20 06:15:33;;;;;;;4.90;4.60;;;;;;;8.22;100.00;101065.34;6047379;23;20014;-71
2022/12/20 06:17:59;;;;;;;8.82;4.80;;;;;;;8.05;100.00;101054.63;6035459;23;20030;-70
2022/12/20 06:20:26;;;;;;;4.57;4.32;;;;;;;7.81;100.00;100991.88;6037161;23;20459;-70
2022/12/20 06:22:53;;;;;;;5.20;4.85;;;;;;;7.72;100.00;100987.84;6040722;23;20037;-71
2022/12/20 06:25:20;;;;;;;4.82;4.40;;;;;;;7.95;100.00;101039.28;6037951;23;20019;-72
2022/12/20 06:27:46;;;;;;;5.30;4.90;;;;;;;7.87;100.00;101020.41;6047147;23;20540;-71
2022/12/20 06:30:13;;;;;;;4.07;3.88;;;;;;;8.16;100.00;101084.72;6036092;23;20022;-74
2022/12/20 06:32:40;;;;;;;5.22;4.72;;;;;;;8.17;100.00;101073.34;6038366;23;20427;-71
2022/12/20 06:35:07;;;;;;;5.93;4.90;;;;;;;8.07;100.00;101037.13;6048128;23;20049;-71
2022/12/20 06:37:35;;;;;;;5.60;5.00;;;;;;;8.21;100.00;101081.06;6038393;23;20046;-72
2022/12/20 06:40:02;;;;;;;4.85;4.45;;;;;;;8.11;100.00;101051.81;6043705;23;20045;-71
2022/12/20 06:42:28;;;;;;;4.93;4.63;;;;;;;8.23;100.00;101045.28;6042554;23;20022;-72
2022/12/20 06:44:55;;;;;;;4.90;4.60;;;;;;;8.24;100.00;101034.75;6043872;23;20042;-71
2022/12/20 06:47:22;;;;;;;4.43;4.22;;;;;;;8.32;100.00;101042.34;6032188;23;20542;-73
2022/12/20 06:49:48;;;;;;;4.47;4.28;;;;;;;8.38;100.00;101040.31;6038710;23;20035;-72
2022/12/20 06:52:14;;;;;;;5.40;5.07;;;;;;;8.32;100.00;101027.47;6038239;23;20011;-72
2022/12/20 06:54:41;;;;;;;5.30;5.00;;;;;;;8.26;100.00;101024.22;6035445;23;20038;-72
2022/12/20 06:57:07;;;;;;;4.70;4.40;;;;;;;8.45;100.00;101040.13;6014893;23;20030;-71
2022/12/20 06:59:34;;;;;;;6.57;5.13;;;;;;;8.05;100.00;100982.28;6038643;23;20027;-72
2022/12/20 07:02:00;;;;;;;4.97;4.68;;;;;;;8.27;100.00;101013.72;6038447;23;20111;-73
2022/12/20 07:04:28;;;;;;;12.85;5.20;;;;;;;8.44;100.00;101043.63;6040571;23;20043;-73
2022/12/20 07:06:56;;;;;;;5.30;4.95;;;;;;;8.45;100.00;101027.91;6040307;23;20078;-70
2022/12/20 07:09:23;;;;;;;4.68;4.13;;;;;;;8.21;100.00;101006.09;6036411;23;20022;-71
2022/12/20 07:11:49;;;;;;;4.40;4.13;;;;;;;8.34;100.00;101036.13;6044207;23;20045;-70
2022/12/20 07:14:15;;;;;;;6.72;5.22;;;;;;;8.37;100.00;101033.38;6039872;23;20010;-70
2022/12/20 07:16:42;;;;;;;6.45;5.50;;;;;;;8.35;100.00;101029.97;6044477;23;20089;-71
2022/12/20 07:19:11;;;;;;;4.95;4.63;;;;;;;7.80;100.00;100937.94;6045697;23;20059;-73
2022/12/20 07:21:37;;;;;;;6.57;4.70;;;;;;;8.08;100.00;100973.47;6051253;23;20405;-71
2022/12/20 07:24:04;;;;;;;5.20;4.90;;;;;;;7.97;100.00;100958.22;6047515;23;20307;-70
2022/12/20 07:26:31;;;;;;;5.35;5.05;;;;;;;8.23;100.00;101012.13;6039461;23;20015;-71
2022/12/20 07:28:58;;;;;;;5.55;5.00;;;;;;;8.40;100.00;101014.13;6042603;23;20848;-72
2022/12/20 07:31:24;;;;;;;4.97;4.68;;;;;;;8.35;100.00;101009.03;6039913;23;20018;-71
2022/12/20 07:33:51;;;;;;;4.93;4.57;;;;;;;8.15;100.00;100974.97;6055120;23;20335;-71
2022/12/20 07:36:17;;;;;;;6.20;5.07;;;;;;;8.29;100.00;101011.06;6045854;23;20035;-71
2022/12/20 07:38:44;;;;;;;5.68;5.15;;;;;;;8.11;100.00;100996.91;6014323;23;20036;-72
2022/12/20 07:41:14;;;;;;;8.60;4.50;;;;;;;8.33;100.00;101034.41;6044029;23;20045;-70
2022/12/20 07:43:41;;;;;;;5.28;4.88;;;;;;;7.79;100.00;100957.13;6042216;23;20458;-70
2022/12/20 07:46:15;;;;;;;7.35;4.97;;;;;;;8.31;100.00;101036.22;6054748;23;20086;-73
2022/12/20 07:48:43;;;;;;;4.50;4.30;;;;;;;8.11;100.00;101023.03;6048291;23;20025;-75
2022/12/20 07:51:22;;;;;;;5.20;4.47;;;;;;;8.28;100.00;101054.66;6052029;23;20030;-74
2022/12/20 07:54:00;;;;;;;6.05;5.13;;;;;;;8.31;100.00;101051.91;6044232;23;20025;-74
2022/12/20 07:56:28;;;;;;;5.15;4.75;;;;;;;8.06;100.00;101004.94;6007664;23;20599;-74
2022/12/20 07:58:59;;;;;;;5.68;5.28;;;;;;;8.16;100.00;101024.59;6046075;23;20027;-72
2022/12/20 08:01:29;;;;;;;4.30;4.10;;;;;;;7.71;100.00;100948.72;6035317;23;20018;-72
2022/12/20 08:04:04;;;;;;;5.30;4.90;;;;;;;8.18;100.00;101027.16;6037212;23;20026;-72
2022/12/20 08:06:32;;;;;;;5.88;5.30;;;;;;;8.26;100.00;101043.41;6041176;23;20089;-72
2022/12/20 08:09:03;;;;;;;5.18;4.88;;;;;;;7.69;100.00;100935.69;6049312;23;20077;-72
2022/12/20 08:11:32;;;;;;;5.00;4.70;;;;;;;8.27;100.00;101042.47;6038658;23;20021;-72
2022/12/20 08:13:59;;;;;;;9.15;4.90;;;;;;;8.10;100.00;101016.97;6030043;23;20461;-72
2022/12/20 08:16:25;;;;;;;5.10;4.80;;;;;;;8.29;100.00;101035.44;6033769;23;20442;-71
2022/12/20 08:18:52;;;;;;;5.13;4.82;;;;;;;7.73;100.00;100934.69;6012726;23;20038;-71
2022/12/20 08:21:18;;;;;;;5.22;4.90;;;;;;;8.07;100.00;100988.31;6040257;23;20567;-71
2022/12/20 08:23:45;;;;;;;6.05;5.40;;;;;;;8.41;100.00;101030.66;6045150;23;20020;-71
2022/12/20 08:26:11;;;;;;;6.25;5.03;;;;;;;8.41;100.00;101018.47;6048468;23;20011;-71
2022/12/20 08:28:38;;;;;;;4.93;4.53;;;;;;;8.35;100.00;101001.19;6040307;23;20053;-71
2022/12/20 08:31:07;;;;;;;5.18;4.90;;;;;;;7.77;100.00;100904.06;6034675;23;20761;-72
2022/12/20 08:33:35;;;;;;;6.40;4.55;;;;;;;7.94;100.00;100937.44;6036337;23;20023;-71
2022/12/20 08:36:05;;;;;;;5.13;4.72;;;;;;;8.48;100.00;101019.06;6036531;23;20022;-71
2022/12/20 08:38:32;;;;;;;5.55;5.15;;;;;;;8.55;100.00;101016.16;6040104;23;20014;-72
2022/12/20 08:41:05;;;;;;;5.47;5.00;;;;;;;7.84;100.00;100902.06;6042235;23;20077;-71
2022/12/20 08:43:32;;;;;;;6.10;5.63;;;;;;;8.59;100.00;101014.28;6042385;23;20442;-71
2022/12/20 08:45:59;;;;;;;8.65;5.45;;;;;;;8.23;100.00;100972.06;6019575;23;20027;-71
2022/12/20 08:48:27;;;;;;;5.63;5.10;;;;;;;8.66;100.00;101010.53;6046889;23;20035;-72
2022/12/20 08:50:57;;;;;;;4.93;4.63;;;;;;;8.58;100.00;100989.06;6041677;23;20187;-72
2022/12/20 08:53:24;;;;;;;5.55;5.10;;;;;;;8.30;100.00;100939.53;6039948;23;20084;-73
2022/12/20 08:55:50;;;;;;;5.30;4.90;;;;;;;8.68;100.00;101002.59;6036344;23;20093;-72
2022/12/20 08:58:17;;;;;;;4.63;4.43;;;;;;;8.48;100.00;100958.91;6036577;23;20015;-73
2022/12/20 09:00:44;;;;;;;6.53;4.82;;;;;;;8.46;100.00;100952.88;6024944;23;20023;-73
2022/12/20 09:03:12;;;;;;;7.68;5.15;;;;;;;8.88;100.00;101026.25;6040073;23;20034;-72
2022/12/20 09:05:44;;;;;;;6.22;5.72;;;;;;;8.47;100.00;100954.59;6034526;23;20080;-72
2022/12/20 09:08:11;;;;;;;6.10;5.70;;;;;;;8.96;100.00;101024.16;6016247;23;20096;-72
2022/12/20 09:10:38;;;;;;;5.10;4.80;;;;;;;8.21;100.00;100893.69;6048620;23;20030;-72
2022/12/20 09:13:04;;;;;;;5.10;4.65;;;;;;;8.53;100.00;100949.13;6036016;23;20057;-72
2022/12/20 09:15:33;;;;;;;4.75;4.55;;;;;;;8.77;100.00;100983.94;6037727;23;20019;-73
2022/12/20 09:17:59;;;;;;;5.32;4.97;;;;;;;8.87;100.00;101000.97;6040029;23;20045;-72
2022/12/20 09:20:27;;;;;;;5.35;5.05;;;;;;;8.88;100.00;100992.22;6008136;23;20040;-72
2022/12/20 09:22:54;;;;;;;4.72;4.47;;;;;;;9.14;100.00;101030.41;6044804;23;20022;-71
2022/12/20 09:25:20;;;;;;;5.07;4.78;;;;;;;8.22;100.00;100879.72;6041819;23;20030;-73
2022/12/20 09:27:47;;;;;;;5.40;4.90;;;;;;;9.03;100.00;101018.69;6040622;23;20022;-72
2022/12/20 09:30:13;;;;;;;5.47;4.97;;;;;;;9.00;100.00;101032.75;6040100;23;20044;-73
2022/12/20 09:32:39;;;;;;;5.40;4.90;;;;;;;8.85;100.00;101001.94;6045717;23;20022;-72
2022/12/20 09:35:06;;;;;;;9.73;5.15;;;;;;;9.11;100.00;101054.09;6038237;23;20129;-72
2022/12/20 09:37:33;;;;;;;6.57;5.40;;;;;;;8.68;100.00;100979.94;6008207;23;20025;-74
2022/12/20 09:39:59;;;;;;;5.07;4.68;;;;;;;8.83;100.00;101003.78;6021721;23;20029;-73
2022/12/20 09:42:28;;;;;;;7.15;5.28;;;;;;;8.81;100.00;101005.59;6037164;23;20558;-73
2022/12/20 09:45:05;;;;;;;5.82;5.32;;;;;;;9.11;100.00;101040.16;6016838;23;20050;-73
2022/12/20 09:47:34;;;;;;;5.78;4.90;;;;;;;8.63;100.00;100953.09;6016590;23;20049;-73
2022/12/20 09:50:02;;;;;;;5.63;5.22;;;;;;;9.26;100.00;101043.91;6044763;23;20033;-73
2022/12/20 09:52:51;;;;;;;6.05;5.55;;;;;;;9.25;100.00;101036.97;6037113;23;20023;-74
2022/12/20 09:55:47;;;;;;;5.07;4.78;;;;;;;9.26;100.00;101042.16;6038755;23;20014;-74
2022/12/20 09:58:40;;;;;;;5.43;5.10;;;;;;;9.32;100.00;101035.78;6023027;23;20017;-72
2022/12/20 10:01:20;;;;;;;5.68;5.22;;;;;;;9.30;100.00;101041.13;6189015;22;20180;-75
2022/12/20 10:03:52;;;;;;;5.80;5.40;;;;;;;9.05;100.00;101004.59;6159334;23;20017;-74
2022/12/20 10:06:39;;;;;;;5.00;4.75;;;;;;;9.24;100.00;101048.34;6134003;23;20068;-74
2022/12/20 10:09:29;;;;;;;6.25;5.75;;;;;;;8.92;100.00;100990.28;6164381;23;20033;-75
2022/12/20 10:12:28;;;;;;;4.75;4.35;;;;;;;9.23;100.00;101038.81;6129955;23;20092;-74
2022/12/20 10:15:17;;;;;;;4.93;4.63;;;;;;;9.23;100.00;101038.81;6138527;23;20035;-74
2022/12/20 10:18:12;;;;;;;5.13;4.75;;;;;;;9.23;100.00;101041.44;6134868;23;20551;-74
2022/12/20 10:20:54;;;;;;;5.10;4.70;;;;;;;8.82;100.00;100957.56;6139620;23;20082;-73
2022/12/20 10:23:24;;;;;;;5.60;5.20;;;;;;;9.31;100.00;101028.88;6164839;23;20094;-74
2022/12/20 10:25:58;;;;;;;5.32;4.97;;;;;;;9.35;100.00;101018.19;6136060;23;20075;-73
2022/12/20 10:28:30;;;;;;;5.20;4.80;;;;;;;8.94;100.00;100960.56;6140640;23;20013;-73
2022/12/20 10:31:14;;;;;;;5.47;5.13;;;;;;;9.14;100.00;100974.56;6130515;23;20110;-73
2022/12/20 10:33:44;;;;;;;5.35;5.05;;;;;;;9.50;100.00;101016.72;6124053;23;20637;-74
2022/12/20 10:36:28;;;;;;;5.30;5.00;;;;;;;9.57;100.00;101012.88;6162564;23;20032;-73
2022/12/20 10:38:57;;;;;;;6.43;5.60;;;;;;;9.66;100.00;101001.19;6111879;23;20034;-74
2022/12/20 10:41:29;;;;;;;15.65;6.00;;;;;;;9.37;100.00;100956.13;6114029;23;20029;-73
2022/12/20 10:44:04;;;;;;;;;;;;;;;9.76;100.00;100999.84;6133825;23;20061;-73
2022/12/20 10:46:41;;;;;;;5.88;5.28;;;;;;;9.81;100.00;100986.53;6133628;23;19938;-73
2022/12/20 10:49:31;;;;;;;7.45;5.85;;;;;;;9.78;100.00;100978.78;6158873;23;20467;-73
2022/12/20 10:52:08;;;;;;;7.00;6.30;;;;;;;9.82;100.00;100982.97;6115864;23;20524;-74
2022/12/20 10:54:36;;;;;;;5.93;5.43;;;;;;;9.86;100.00;100987.19;6149453;23;20037;-74
2022/12/20 10:57:25;;;;;;;5.47;5.18;;;;;;;9.92;100.00;100979.06;6150124;23;20464;-74
2022/12/20 10:59:57;;;;;;;5.43;5.03;;;;;;;9.64;100.00;100910.44;6120844;23;20150;-74
2022/12/20 11:02:27;;;;;;;5.07;4.72;;;;;;;9.52;100.00;100875.16;6134472;23;20409;-74
2022/12/20 11:05:10;;;;;;;5.30;5.00;;;;;;;10.22;100.00;100975.09;6154756;23;20024;-73
2022/12/20 11:08:07;;;;;;;6.30;5.03;;;;;;;10.33;100.00;100968.47;6126471;23;20024;-75
2022/12/20 11:11:15;;;;;;;5.15;4.68;;;;;;;10.40;100.00;100962.91;6153390;23;20027;-75
2022/12/20 11:13:43;;;;;;;4.97;4.68;;;;;;;10.45;100.00;100955.69;6087843;23;20054;-74
2022/12/20 11:16:23;;;;;;;4.93;4.63;;;;;;;10.52;100.00;100943.97;6136456;23;20024;-74
2022/12/20 11:19:29;;;;;;;5.30;5.00;;;;;;;10.57;100.00;100950.69;6072388;23;20130;-73
2022/12/20 11:22:18;;;;;;;4.75;4.55;;;;;;;10.58;100.00;100948.91;6137338;23;20036;-74
2022/12/20 11:24:55;;;;;;;5.28;5.00;;;;;;;10.19;100.00;100889.53;6104333;23;20006;-75
2022/12/20 11:27:52;;;;;;;4.63;4.43;;;;;;;10.54;100.00;100948.25;6141409;23;20190;-74
2022/12/20 11:30:33;;;;;;;5.65;5.13;;;;;;;10.51;100.00;100943.13;6115209;23;20041;-73
2022/12/20 11:33:17;;;;;;;5.43;5.13;;;;;;;10.02;100.00;100871.13;6081868;23;20100;-74
2022/12/20 11:36:05;;;;;;;5.15;4.85;;;;;;;10.48;100.00;100940.63;6047768;23;20026;-75
2022/12/20 11:38:42;;;;;;;5.05;4.75;;;;;;;10.50;100.00;100938.81;6112834;23;20079;-74
2022/12/20 11:41:32;;;;;;;4.75;4.50;;;;;;;10.43;100.00;100915.56;6083079;23;20128;-73
2022/12/20 11:44:23;;;;;;;4.90;4.60;;;;;;;10.26;100.00;100888.31;6108731;23;20029;-74
2022/12/20 11:47:06;;;;;;;4.72;4.53;;;;;;;10.35;100.00;100908.91;6097327;23;20021;-74
2022/12/20 11:49:52;;;;;;;5.05;4.75;;;;;;;10.47;100.00;100898.75;6132825;23;20029;-75
2022/12/20 11:52:26;;;;;;;4.90;4.60;;;;;;;10.65;100.00;100921.47;6092521;23;20017;-74